GLO1622 SBBR-SBCF
Flight info
| Callsign | GLO1622 |
|---|---|
| Flight time | 0h 55m |
| Altitude | 33000 |
| Route | GEPMO UZ35 REINA |
| Aircraft | B738/M-SDFGIKLORWXY/LB1 |
Departure
| Time | 2026-05-05 21:39 |
|---|---|
| Airport | Presidente Juscelino Kubitschek International Airport (SBBR) |
Arrival
| Time | 2026-05-05 22:34 |
|---|---|
| Airport | Tancredo Neves International Airport (SBCF) |
| Time | Latitude | Longitude | Altitude | Speed | Heading |
|---|---|---|---|---|---|
| 2026-05-05 21:01 | -15.87123 | -47.91815 | 3469 ft | 0 kts | 177° |
| 2026-05-05 21:19 | -15.87101 | -47.91816 | 3469 ft | 4 kts | 177° |
| 2026-05-05 21:19 | -15.87075 | -47.91820 | 3469 ft | 4 kts | 145° |
| 2026-05-05 21:20 | -15.87068 | -47.91835 | 3469 ft | 4 kts | 86° |
| 2026-05-05 21:20 | -15.87069 | -47.91862 | 3469 ft | 2 kts | 86° |
| 2026-05-05 21:20 | -15.87069 | -47.91865 | 3469 ft | 0 kts | 86° |
| 2026-05-05 21:28 | -15.87069 | -47.91858 | 3469 ft | 5 kts | 86° |
| 2026-05-05 21:28 | -15.87065 | -47.91787 | 3469 ft | 13 kts | 87° |
| 2026-05-05 21:28 | -15.87075 | -47.91696 | 3468 ft | 13 kts | 139° |
| 2026-05-05 21:29 | -15.87163 | -47.91680 | 3469 ft | 13 kts | 174° |
| 2026-05-05 21:29 | -15.87250 | -47.91671 | 3468 ft | 12 kts | 176° |
| 2026-05-05 21:29 | -15.87335 | -47.91667 | 3468 ft | 12 kts | 175° |
| 2026-05-05 21:29 | -15.87421 | -47.91660 | 3469 ft | 13 kts | 177° |
| 2026-05-05 21:30 | -15.87531 | -47.91655 | 3468 ft | 17 kts | 176° |
| 2026-05-05 21:30 | -15.87645 | -47.91646 | 3469 ft | 16 kts | 176° |
| 2026-05-05 21:30 | -15.87739 | -47.91683 | 3469 ft | 16 kts | 257° |
| 2026-05-05 21:30 | -15.87745 | -47.91795 | 3469 ft | 15 kts | 266° |
| 2026-05-05 21:31 | -15.87751 | -47.91900 | 3470 ft | 14 kts | 266° |
| 2026-05-05 21:31 | -15.87757 | -47.92003 | 3470 ft | 14 kts | 266° |
| 2026-05-05 21:31 | -15.87766 | -47.92100 | 3470 ft | 13 kts | 264° |
| 2026-05-05 21:31 | -15.87775 | -47.92194 | 3470 ft | 13 kts | 264° |
| 2026-05-05 21:32 | -15.87784 | -47.92284 | 3471 ft | 12 kts | 267° |
| 2026-05-05 21:32 | -15.87784 | -47.92374 | 3470 ft | 12 kts | 270° |
| 2026-05-05 21:32 | -15.87784 | -47.92461 | 3470 ft | 12 kts | 270° |
| 2026-05-05 21:32 | -15.87784 | -47.92546 | 3470 ft | 12 kts | 266° |
| 2026-05-05 21:33 | -15.87793 | -47.92635 | 3470 ft | 15 kts | 264° |
| 2026-05-05 21:33 | -15.87805 | -47.92749 | 3469 ft | 16 kts | 265° |
| 2026-05-05 21:33 | -15.87811 | -47.92863 | 3470 ft | 15 kts | 266° |
| 2026-05-05 21:33 | -15.87817 | -47.92972 | 3470 ft | 15 kts | 266° |
| 2026-05-05 21:34 | -15.87825 | -47.93077 | 3470 ft | 14 kts | 265° |
| 2026-05-05 21:34 | -15.87832 | -47.93177 | 3471 ft | 14 kts | 265° |
| 2026-05-05 21:34 | -15.87839 | -47.93273 | 3471 ft | 13 kts | 265° |
| 2026-05-05 21:34 | -15.87846 | -47.93365 | 3471 ft | 13 kts | 265° |
| 2026-05-05 21:35 | -15.87852 | -47.93455 | 3470 ft | 12 kts | 265° |
| 2026-05-05 21:35 | -15.87859 | -47.93542 | 3471 ft | 12 kts | 265° |
| 2026-05-05 21:35 | -15.87864 | -47.93628 | 3472 ft | 12 kts | 267° |
| 2026-05-05 21:35 | -15.87868 | -47.93711 | 3472 ft | 11 kts | 267° |
| 2026-05-05 21:36 | -15.87872 | -47.93792 | 3471 ft | 11 kts | 267° |
| 2026-05-05 21:36 | -15.87876 | -47.93871 | 3472 ft | 11 kts | 267° |
| 2026-05-05 21:36 | -15.87883 | -47.93947 | 3471 ft | 10 kts | 250° |
| 2026-05-05 21:36 | -15.87931 | -47.93996 | 3473 ft | 10 kts | 191° |
| 2026-05-05 21:37 | -15.88001 | -47.93984 | 3480 ft | 10 kts | 173° |
| 2026-05-05 21:37 | -15.88050 | -47.93940 | 3480 ft | 10 kts | 111° |
| 2026-05-05 21:37 | -15.88053 | -47.93869 | 3480 ft | 10 kts | 83° |
| 2026-05-05 21:37 | -15.88052 | -47.93863 | 3481 ft | 0 kts | 83° |
| 2026-05-05 21:38 | -15.88049 | -47.93836 | 3480 ft | 19 kts | 83° |
| 2026-05-05 21:38 | -15.88022 | -47.93443 | 3477 ft | 89 kts | 86° |
| 2026-05-05 21:38 | -15.87974 | -47.92578 | 3475 ft | 148 kts | 86° |
| 2026-05-05 21:39 | -15.87897 | -47.91356 | 3661 ft | 181 kts | 87° |
| 2026-05-05 21:39 | -15.87808 | -47.90034 | 4338 ft | 187 kts | 88° |
| 2026-05-05 21:39 | -15.88087 | -47.88726 | 4832 ft | 195 kts | 127° |
| 2026-05-05 21:39 | -15.89231 | -47.88012 | 5149 ft | 200 kts | 173° |
| 2026-05-05 21:40 | -15.90627 | -47.87937 | 5552 ft | 202 kts | 173° |
| 2026-05-05 21:40 | -15.92036 | -47.87783 | 5946 ft | 204 kts | 170° |
| 2026-05-05 21:40 | -15.93437 | -47.87576 | 6364 ft | 204 kts | 168° |
| 2026-05-05 21:40 | -15.94857 | -47.87321 | 6710 ft | 215 kts | 167° |
| 2026-05-05 21:41 | -15.96412 | -47.87006 | 6916 ft | 238 kts | 166° |
| 2026-05-05 21:41 | -15.98080 | -47.86639 | 7259 ft | 256 kts | 165° |
| 2026-05-05 21:41 | -15.99916 | -47.86203 | 7593 ft | 277 kts | 165° |
| 2026-05-05 21:41 | -16.01806 | -47.85733 | 8335 ft | 282 kts | 164° |
| 2026-05-05 21:42 | -16.03724 | -47.85247 | 8850 ft | 283 kts | 164° |
| 2026-05-05 21:42 | -16.05635 | -47.84760 | 9232 ft | 285 kts | 164° |
| 2026-05-05 21:42 | -16.07471 | -47.83985 | 9249 ft | 285 kts | 141° |
| 2026-05-05 21:42 | -16.08969 | -47.82666 | 9785 ft | 287 kts | 137° |
| 2026-05-05 21:43 | -16.10479 | -47.81281 | 10539 ft | 291 kts | 137° |
| 2026-05-05 21:43 | -16.12041 | -47.79840 | 10799 ft | 313 kts | 137° |
| 2026-05-05 21:43 | -16.13736 | -47.78276 | 11008 ft | 334 kts | 137° |
| 2026-05-05 21:43 | -16.15507 | -47.76646 | 11491 ft | 344 kts | 137° |
| 2026-05-05 21:44 | -16.17299 | -47.75001 | 12129 ft | 348 kts | 137° |
| 2026-05-05 21:44 | -16.19134 | -47.73319 | 12808 ft | 352 kts | 137° |
| 2026-05-05 21:44 | -16.20984 | -47.71626 | 13486 ft | 354 kts | 138° |
| 2026-05-05 21:44 | -16.22828 | -47.69940 | 14119 ft | 358 kts | 138° |
| 2026-05-05 21:45 | -16.24712 | -47.68215 | 14758 ft | 361 kts | 138° |
| 2026-05-05 21:45 | -16.26606 | -47.66482 | 15400 ft | 363 kts | 139° |
| 2026-05-05 21:45 | -16.28503 | -47.64746 | 16011 ft | 367 kts | 139° |
| 2026-05-05 21:45 | -16.30437 | -47.62975 | 16609 ft | 370 kts | 139° |
| 2026-05-05 21:46 | -16.32359 | -47.61214 | 17199 ft | 373 kts | 139° |
| 2026-05-05 21:46 | -16.34313 | -47.59424 | 17791 ft | 375 kts | 139° |
| 2026-05-05 21:46 | -16.36282 | -47.57619 | 18364 ft | 378 kts | 140° |
| 2026-05-05 21:46 | -16.38279 | -47.55788 | 18900 ft | 382 kts | 140° |
| 2026-05-05 21:47 | -16.40259 | -47.53973 | 19399 ft | 385 kts | 140° |
| 2026-05-05 21:47 | -16.42280 | -47.52118 | 19920 ft | 388 kts | 140° |
| 2026-05-05 21:47 | -16.44319 | -47.50247 | 20410 ft | 392 kts | 140° |
| 2026-05-05 21:47 | -16.46372 | -47.48363 | 20894 ft | 395 kts | 140° |
| 2026-05-05 21:48 | -16.48444 | -47.46460 | 21349 ft | 398 kts | 140° |
| 2026-05-05 21:48 | -16.50515 | -47.44558 | 21792 ft | 401 kts | 140° |
| 2026-05-05 21:48 | -16.52623 | -47.42621 | 22239 ft | 404 kts | 140° |
| 2026-05-05 21:48 | -16.54746 | -47.40670 | 22680 ft | 407 kts | 140° |
| 2026-05-05 21:49 | -16.56886 | -47.38702 | 23080 ft | 410 kts | 140° |
| 2026-05-05 21:49 | -16.59012 | -47.36747 | 23484 ft | 413 kts | 140° |
| 2026-05-05 21:49 | -16.61179 | -47.34754 | 23876 ft | 415 kts | 140° |
| 2026-05-05 21:49 | -16.63356 | -47.32750 | 24254 ft | 418 kts | 140° |
| 2026-05-05 21:50 | -16.65549 | -47.30731 | 24629 ft | 420 kts | 141° |
| 2026-05-05 21:50 | -16.67725 | -47.28728 | 24993 ft | 423 kts | 141° |
| 2026-05-05 21:50 | -16.69943 | -47.26685 | 25351 ft | 425 kts | 141° |
| 2026-05-05 21:50 | -16.72170 | -47.24632 | 25716 ft | 427 kts | 141° |
| 2026-05-05 21:51 | -16.74387 | -47.22588 | 26069 ft | 430 kts | 141° |
| 2026-05-05 21:51 | -16.76654 | -47.20497 | 26427 ft | 431 kts | 141° |
| 2026-05-05 21:51 | -16.78897 | -47.18428 | 26763 ft | 434 kts | 141° |
| 2026-05-05 21:51 | -16.81168 | -47.16333 | 27089 ft | 436 kts | 141° |
| 2026-05-05 21:52 | -16.85728 | -47.12119 | 27756 ft | 440 kts | 141° |
| 2026-05-05 21:52 | -16.87982 | -47.09975 | 28054 ft | 443 kts | 141° |
| 2026-05-05 21:52 | -16.90252 | -47.07776 | 28364 ft | 445 kts | 140° |
| 2026-05-05 21:53 | -16.92530 | -47.05556 | 28655 ft | 447 kts | 140° |
| 2026-05-05 21:53 | -16.94787 | -47.03358 | 28948 ft | 449 kts | 141° |
| 2026-05-05 21:53 | -16.97085 | -47.01122 | 29307 ft | 449 kts | 141° |
| 2026-05-05 21:53 | -16.99356 | -46.98917 | 29755 ft | 446 kts | 141° |
| 2026-05-05 21:54 | -17.01635 | -46.96707 | 30230 ft | 443 kts | 141° |
| 2026-05-05 21:54 | -17.03878 | -46.94533 | 30642 ft | 442 kts | 141° |
| 2026-05-05 21:54 | -17.06143 | -46.92339 | 31058 ft | 440 kts | 142° |
| 2026-05-05 21:54 | -17.08365 | -46.90184 | 31516 ft | 438 kts | 142° |
| 2026-05-05 21:55 | -17.10596 | -46.88021 | 31959 ft | 435 kts | 142° |
| 2026-05-05 21:55 | -17.12069 | -46.86593 | 32222 ft | 434 kts | 142° |
| 2026-05-05 21:55 | -17.15003 | -46.83746 | 32697 ft | 432 kts | 143° |
| 2026-05-05 21:55 | -17.17203 | -46.81611 | 33088 ft | 430 kts | 143° |
| 2026-05-05 21:56 | -17.18664 | -46.80190 | 33258 ft | 431 kts | 143° |
| 2026-05-05 21:56 | -17.23061 | -46.75910 | 33243 ft | 430 kts | 143° |
| 2026-05-05 21:57 | -17.27412 | -46.71668 | 33251 ft | 429 kts | 143° |
| 2026-05-05 21:57 | -17.31780 | -46.67408 | 33247 ft | 429 kts | 143° |
| 2026-05-05 21:58 | -17.36134 | -46.63159 | 33240 ft | 429 kts | 143° |
| 2026-05-05 21:58 | -17.40501 | -46.58894 | 33244 ft | 429 kts | 143° |
| 2026-05-05 21:59 | -17.44881 | -46.54614 | 33245 ft | 430 kts | 143° |
| 2026-05-05 21:59 | -17.49239 | -46.50351 | 33246 ft | 430 kts | 143° |
| 2026-05-05 22:00 | -17.53630 | -46.46055 | 33245 ft | 432 kts | 142° |
| 2026-05-05 22:00 | -17.58005 | -46.41770 | 33249 ft | 432 kts | 142° |
| 2026-05-05 22:01 | -17.62414 | -46.37448 | 33250 ft | 433 kts | 142° |
| 2026-05-05 22:01 | -17.66804 | -46.33143 | 33247 ft | 434 kts | 142° |
| 2026-05-05 22:02 | -17.71232 | -46.28796 | 33251 ft | 435 kts | 142° |
| 2026-05-05 22:02 | -17.75638 | -46.24469 | 33252 ft | 435 kts | 142° |
| 2026-05-05 22:03 | -17.80040 | -46.20141 | 33244 ft | 436 kts | 142° |
| 2026-05-05 22:03 | -17.84231 | -46.16019 | 33255 ft | 436 kts | 142° |
| 2026-05-05 22:04 | -17.88663 | -46.11656 | 33242 ft | 436 kts | 142° |
| 2026-05-05 22:04 | -17.93072 | -46.07313 | 33242 ft | 436 kts | 142° |
| 2026-05-05 22:05 | -17.97506 | -46.02943 | 33264 ft | 436 kts | 142° |
| 2026-05-05 22:05 | -18.01911 | -45.98598 | 33241 ft | 436 kts | 142° |
| 2026-05-05 22:06 | -18.06317 | -45.94248 | 33246 ft | 435 kts | 142° |
| 2026-05-05 22:06 | -18.10747 | -45.89870 | 33246 ft | 435 kts | 142° |
| 2026-05-05 22:07 | -18.15138 | -45.85528 | 33247 ft | 435 kts | 142° |
| 2026-05-05 22:07 | -18.19562 | -45.81149 | 33249 ft | 435 kts | 142° |
| 2026-05-05 22:08 | -18.23946 | -45.76807 | 33251 ft | 435 kts | 142° |
| 2026-05-05 22:08 | -18.28370 | -45.72422 | 33249 ft | 435 kts | 142° |
| 2026-05-05 22:09 | -18.32713 | -45.68110 | 33231 ft | 421 kts | 142° |
| 2026-05-05 22:09 | -18.34836 | -45.65999 | 32957 ft | 414 kts | 142° |
| 2026-05-05 22:09 | -18.36890 | -45.63960 | 32686 ft | 407 kts | 142° |
| 2026-05-05 22:09 | -18.38950 | -45.61917 | 32301 ft | 404 kts | 142° |
| 2026-05-05 22:10 | -18.40993 | -45.59889 | 31923 ft | 401 kts | 142° |
| 2026-05-05 22:10 | -18.43025 | -45.57872 | 31554 ft | 398 kts | 141° |
| 2026-05-05 22:10 | -18.44934 | -45.55817 | 31184 ft | 399 kts | 135° |
| 2026-05-05 22:10 | -18.46681 | -45.53546 | 30821 ft | 398 kts | 132° |
| 2026-05-05 22:11 | -18.48345 | -45.51208 | 30436 ft | 396 kts | 131° |
| 2026-05-05 22:11 | -18.49961 | -45.48893 | 30075 ft | 393 kts | 130° |
| 2026-05-05 22:11 | -18.51590 | -45.46571 | 29693 ft | 391 kts | 131° |
| 2026-05-05 22:11 | -18.53217 | -45.44277 | 29303 ft | 388 kts | 131° |
| 2026-05-05 22:12 | -18.54828 | -45.42030 | 28921 ft | 385 kts | 131° |
| 2026-05-05 22:12 | -18.56454 | -45.39780 | 28538 ft | 382 kts | 131° |
| 2026-05-05 22:12 | -18.58053 | -45.37577 | 28155 ft | 380 kts | 131° |
| 2026-05-05 22:12 | -18.59660 | -45.35367 | 27777 ft | 378 kts | 131° |
| 2026-05-05 22:13 | -18.61261 | -45.33168 | 27400 ft | 376 kts | 131° |
| 2026-05-05 22:13 | -18.62833 | -45.31010 | 27028 ft | 373 kts | 131° |
| 2026-05-05 22:13 | -18.64421 | -45.28828 | 26650 ft | 371 kts | 131° |
| 2026-05-05 22:13 | -18.65970 | -45.26699 | 26282 ft | 369 kts | 131° |
| 2026-05-05 22:14 | -18.67534 | -45.24550 | 25903 ft | 367 kts | 131° |
| 2026-05-05 22:14 | -18.69086 | -45.22415 | 25537 ft | 365 kts | 131° |
| 2026-05-05 22:14 | -18.70632 | -45.20289 | 25170 ft | 363 kts | 131° |
| 2026-05-05 22:14 | -18.72143 | -45.18209 | 24807 ft | 361 kts | 131° |
| 2026-05-05 22:15 | -18.73673 | -45.16102 | 24439 ft | 359 kts | 131° |
| 2026-05-05 22:15 | -18.75190 | -45.14014 | 24074 ft | 357 kts | 131° |
| 2026-05-05 22:15 | -18.76698 | -45.11936 | 23710 ft | 355 kts | 131° |
| 2026-05-05 22:15 | -18.78182 | -45.09891 | 23349 ft | 354 kts | 130° |
| 2026-05-05 22:16 | -18.79679 | -45.07828 | 22986 ft | 352 kts | 130° |
| 2026-05-05 22:16 | -18.81165 | -45.05778 | 22626 ft | 350 kts | 130° |
| 2026-05-05 22:16 | -18.82648 | -45.03732 | 22262 ft | 348 kts | 130° |
| 2026-05-05 22:16 | -18.84103 | -45.01724 | 21909 ft | 347 kts | 130° |
| 2026-05-05 22:17 | -18.85569 | -44.99701 | 21554 ft | 345 kts | 130° |
| 2026-05-05 22:17 | -18.87029 | -44.97685 | 21196 ft | 343 kts | 130° |
| 2026-05-05 22:17 | -18.88461 | -44.95707 | 20849 ft | 341 kts | 129° |
| 2026-05-05 22:17 | -18.89896 | -44.93724 | 20499 ft | 339 kts | 129° |
| 2026-05-05 22:18 | -18.91330 | -44.91742 | 20141 ft | 338 kts | 129° |
| 2026-05-05 22:18 | -18.92756 | -44.89771 | 19789 ft | 336 kts | 129° |
| 2026-05-05 22:18 | -18.94178 | -44.87803 | 19436 ft | 334 kts | 129° |
| 2026-05-05 22:18 | -18.95574 | -44.85872 | 19095 ft | 332 kts | 129° |
| 2026-05-05 22:19 | -18.96963 | -44.83950 | 18751 ft | 331 kts | 129° |
| 2026-05-05 22:19 | -18.98363 | -44.82011 | 18405 ft | 329 kts | 129° |
| 2026-05-05 22:19 | -18.99743 | -44.80101 | 18068 ft | 327 kts | 129° |
| 2026-05-05 22:19 | -19.01132 | -44.78177 | 17723 ft | 326 kts | 129° |
| 2026-05-05 22:20 | -19.02488 | -44.76297 | 17385 ft | 324 kts | 128° |
| 2026-05-05 22:20 | -19.03852 | -44.74406 | 17046 ft | 322 kts | 128° |
| 2026-05-05 22:20 | -19.05198 | -44.72541 | 16707 ft | 321 kts | 128° |
| 2026-05-05 22:20 | -19.06553 | -44.70661 | 16382 ft | 319 kts | 128° |
| 2026-05-05 22:21 | -19.07886 | -44.68812 | 16046 ft | 317 kts | 128° |
| 2026-05-05 22:21 | -19.09223 | -44.66957 | 15707 ft | 315 kts | 128° |
| 2026-05-05 22:21 | -19.10553 | -44.65110 | 15375 ft | 314 kts | 128° |
| 2026-05-05 22:21 | -19.11876 | -44.63271 | 15056 ft | 312 kts | 128° |
| 2026-05-05 22:22 | -19.13172 | -44.61471 | 14721 ft | 310 kts | 128° |
| 2026-05-05 22:22 | -19.14483 | -44.59649 | 14390 ft | 309 kts | 127° |
| 2026-05-05 22:22 | -19.15783 | -44.57840 | 14058 ft | 307 kts | 127° |
| 2026-05-05 22:22 | -19.17076 | -44.56040 | 13740 ft | 306 kts | 127° |
| 2026-05-05 22:23 | -19.18349 | -44.54268 | 13417 ft | 305 kts | 127° |
| 2026-05-05 22:23 | -19.19636 | -44.52478 | 13092 ft | 303 kts | 127° |
| 2026-05-05 22:23 | -19.20909 | -44.50705 | 12763 ft | 301 kts | 127° |
| 2026-05-05 22:23 | -19.22165 | -44.48956 | 12455 ft | 300 kts | 127° |
| 2026-05-05 22:24 | -19.23420 | -44.47209 | 12134 ft | 299 kts | 127° |
| 2026-05-05 22:24 | -19.24674 | -44.45461 | 11818 ft | 297 kts | 126° |
| 2026-05-05 22:24 | -19.25926 | -44.43715 | 11504 ft | 296 kts | 126° |
| 2026-05-05 22:24 | -19.27171 | -44.41979 | 11184 ft | 294 kts | 126° |
| 2026-05-05 22:25 | -19.28395 | -44.40272 | 10879 ft | 293 kts | 126° |
| 2026-05-05 22:25 | -19.29627 | -44.38553 | 10565 ft | 291 kts | 126° |
| 2026-05-05 22:25 | -19.30827 | -44.36879 | 10405 ft | 284 kts | 126° |
| 2026-05-05 22:25 | -19.31995 | -44.35221 | 10255 ft | 277 kts | 122° |
| 2026-05-05 22:26 | -19.32772 | -44.33369 | 10015 ft | 274 kts | 107° |
| 2026-05-05 22:26 | -19.33363 | -44.31441 | 9766 ft | 275 kts | 108° |
| 2026-05-05 22:26 | -19.33960 | -44.29549 | 9519 ft | 276 kts | 108° |
| 2026-05-05 22:26 | -19.34530 | -44.27782 | 9294 ft | 275 kts | 109° |
| 2026-05-05 22:27 | -19.35163 | -44.25840 | 9026 ft | 273 kts | 109° |
| 2026-05-05 22:27 | -19.35779 | -44.23957 | 8772 ft | 271 kts | 109° |
| 2026-05-05 22:27 | -19.36408 | -44.22090 | 8518 ft | 269 kts | 114° |
| 2026-05-05 22:27 | -19.37503 | -44.20498 | 8266 ft | 267 kts | 137° |
| 2026-05-05 22:28 | -19.38928 | -44.19238 | 8032 ft | 264 kts | 140° |
| 2026-05-05 22:28 | -19.40332 | -44.18009 | 7782 ft | 262 kts | 139° |
| 2026-05-05 22:28 | -19.41730 | -44.16776 | 7546 ft | 260 kts | 139° |
| 2026-05-05 22:28 | -19.43106 | -44.15559 | 7310 ft | 257 kts | 139° |
| 2026-05-05 22:29 | -19.44424 | -44.14369 | 7239 ft | 243 kts | 138° |
| 2026-05-05 22:29 | -19.45679 | -44.13211 | 7132 ft | 230 kts | 138° |
| 2026-05-05 22:29 | -19.46846 | -44.12133 | 7044 ft | 216 kts | 137° |
| 2026-05-05 22:29 | -19.47933 | -44.11130 | 6939 ft | 199 kts | 137° |
| 2026-05-05 22:30 | -19.48930 | -44.10211 | 6821 ft | 180 kts | 138° |
| 2026-05-05 22:30 | -19.49829 | -44.09383 | 6614 ft | 166 kts | 137° |
| 2026-05-05 22:30 | -19.50688 | -44.08589 | 6217 ft | 164 kts | 137° |
| 2026-05-05 22:30 | -19.51531 | -44.07809 | 5818 ft | 160 kts | 137° |
| 2026-05-05 22:31 | -19.52373 | -44.07033 | 5356 ft | 160 kts | 137° |
| 2026-05-05 22:31 | -19.53198 | -44.06275 | 5060 ft | 154 kts | 137° |
| 2026-05-05 22:31 | -19.54018 | -44.05547 | 4882 ft | 153 kts | 138° |
| 2026-05-05 22:31 | -19.54833 | -44.04808 | 4681 ft | 154 kts | 137° |
| 2026-05-05 22:32 | -19.55625 | -44.04076 | 4487 ft | 153 kts | 137° |
| 2026-05-05 22:32 | -19.56445 | -44.03315 | 4269 ft | 153 kts | 137° |
| 2026-05-05 22:32 | -19.57234 | -44.02579 | 4075 ft | 152 kts | 137° |
| 2026-05-05 22:32 | -19.58033 | -44.01837 | 3873 ft | 152 kts | 137° |
| 2026-05-05 22:33 | -19.58830 | -44.01094 | 3675 ft | 152 kts | 137° |
| 2026-05-05 22:33 | -19.59627 | -44.00352 | 3467 ft | 152 kts | 137° |
| 2026-05-05 22:33 | -19.60405 | -43.99638 | 3274 ft | 145 kts | 137° |
| 2026-05-05 22:33 | -19.61149 | -43.98915 | 3098 ft | 145 kts | 136° |
| 2026-05-05 22:34 | -19.61920 | -43.98209 | 2944 ft | 147 kts | 139° |
| 2026-05-05 22:34 | -19.62667 | -43.97511 | 2824 ft | 138 kts | 137° |
| 2026-05-05 22:34 | -19.63283 | -43.96931 | 2812 ft | 90 kts | 139° |
| 2026-05-05 22:34 | -19.63521 | -43.96712 | 2813 ft | 9 kts | 139° |
| 2026-05-05 22:35 | -19.63558 | -43.96663 | 2812 ft | 8 kts | 113° |
| 2026-05-05 22:35 | -19.63581 | -43.96606 | 2813 ft | 8 kts | 112° |
| 2026-05-05 22:35 | -19.63602 | -43.96550 | 2810 ft | 8 kts | 108° |
| 2026-05-05 22:35 | -19.63605 | -43.96496 | 2810 ft | 8 kts | 50° |
| 2026-05-05 22:36 | -19.63555 | -43.96481 | 2810 ft | 8 kts | 349° |
| 2026-05-05 22:36 | -19.63488 | -43.96538 | 2814 ft | 17 kts | 317° |
| 2026-05-05 22:36 | -19.63380 | -43.96643 | 2810 ft | 23 kts | 317° |
| 2026-05-05 22:36 | -19.63266 | -43.96696 | 2811 ft | 17 kts | 25° |
| 2026-05-05 22:37 | -19.63187 | -43.96610 | 2812 ft | 16 kts | 58° |
| 2026-05-05 22:37 | -19.63158 | -43.96539 | 2810 ft | 7 kts | 69° |
| 2026-05-05 22:37 | -19.63136 | -43.96506 | 2810 ft | 0 kts | 49° |